Aeroporto :
LOGIN :

Iscrizione | Disclaimer

   EN    FR    IT 

 










Sommario :    VFR   VFR Marginale   IFR   IFR Intensivo   IFR Molto Intensivo
Visibilità : 
Base nubi : 
>= 8 km
>= 3000ft
5 / 8 km
1000 / 3000 ft
1500m / 5 km
500 / 1000 ft
800 / 1500m
200 / 500 ft
< 800m
< 200 ft
Simboli :   Temporali  Nebbia  Neve Forte  Precipitazioni Forti  Vento > 20 kt
SIGMETs :   Varie  Temporali  Ghiacco  Turbolenza  Onda orograficha  Ceneri Vulcaniche






- Altitudine del aeroporto : 142 ft
- Codice IATA : ALC


LEAL - Alicante

ULTIMO METAR :
  • 020730Z 25005KT CAVOK 09/01 Q1012 NOSIG

METARs OBSOLETI :
  • 020700Z 26005KT CAVOK 08/01 Q1012 NOSIG
  • 020630Z 24006KT CAVOK 09/01 Q1012 NOSIG
  • 020600Z 27006KT CAVOK 10/01 Q1012 NOSIG
  • 020530Z 24006KT 200V260 CAVOK 11/01 Q1012 NOSIG
  • 020500Z 22004KT 190V260 CAVOK 10/01 Q1012 NOSIG
  • 020430Z 24005KT CAVOK 10/01 Q1012 NOSIG
  • 012100Z 25002KT CAVOK 10/04 Q1015 NOSIG
  • 020400Z 28010KT CAVOK 11/01 Q1012 NOSIG
  • 020330Z 30012KT CAVOK 12/01 Q1012 NOSIG
  • 020300Z 29009KT CAVOK 10/01 Q1013 NOSIG

TAF TAF LEAL
Valido dal 02 a 06 ore il 03 a 06 ore UTC


020500Z 0206/0306 25007KT CAVOK TX20/0214Z TN09/0207Z
BECMG 0210/0212 19010KT
PROB40
TEMPO 0212/0218 20015G25KT
BECMG 0216/0218 27010KT
PROB40 0221/0306 4000 SHRA FEW020TCU
PROB40
TEMPO 0221/0301 27015G25KT



MetMap, La meteo Aeronautica in un colpo d'occhio ! - Copyright ORBIFLY Dicembre 2007 - Disclaimer

ORBIFLY MET'MAP TEAM :

Programmazione e sviluppo : Alexandra Zaïnal
Concezione : Baudouin d'Aumeries
Supporto tecnico e logistico : Manuel Goepfert
Aiuto : Marc-Olivier Méhu
Aiuto per la traduzione : Arnaldo La Scala




FONTI E CREDITI :

   NOAA